createdAt,value
2023-04-30T00:02:14.544Z,28.17
2023-04-30T00:04:41.258Z,28.83
2023-04-30T00:07:08.533Z,27.40
2023-04-30T00:09:35.146Z,25.60
2023-04-30T00:12:01.743Z,25.10
2023-04-30T00:14:28.446Z,24.57
2023-04-30T00:16:55.086Z,22.17
2023-04-30T00:19:21.720Z,22.97
2023-04-30T00:21:48.373Z,22.40
2023-04-30T00:24:15.034Z,21.30
2023-04-30T00:26:42.706Z,20.83
2023-04-30T00:29:09.846Z,21.83
2023-04-30T00:31:36.734Z,21.87
2023-04-30T00:34:03.567Z,21.03
2023-04-30T00:36:31.164Z,19.73
2023-04-30T00:38:57.923Z,21.23
2023-04-30T00:41:25.687Z,20.73
2023-04-30T00:43:52.360Z,20.10
2023-04-30T00:46:19.044Z,21.47
2023-04-30T00:48:45.886Z,19.43
2023-04-30T00:51:12.592Z,18.90
2023-04-30T00:53:40.139Z,20.13
2023-04-30T00:56:09.001Z,21.10
2023-04-30T00:58:35.716Z,19.67
2023-04-30T01:01:03.605Z,18.80
2023-04-30T01:03:30.548Z,20.37
2023-04-30T01:05:57.369Z,19.30
2023-04-30T01:08:24.417Z,21.47
2023-04-30T01:10:54.295Z,21.40
2023-04-30T01:13:26.622Z,19.07
2023-04-30T01:16:01.531Z,18.70
2023-04-30T01:18:29.429Z,20.73
2023-04-30T01:21:06.068Z,20.57
2023-04-30T01:23:34.076Z,20.70
2023-04-30T01:26:01.305Z,20.03
2023-04-30T01:28:28.100Z,19.43
2023-04-30T01:30:56.296Z,22.37
2023-04-30T01:33:23.029Z,20.53
2023-04-30T01:35:49.619Z,19.73
2023-04-30T01:38:24.894Z,20.60
2023-04-30T01:40:57.279Z,20.97
2023-04-30T01:43:42.885Z,21.37
2023-04-30T01:46:33.037Z,19.30
2023-04-30T01:49:08.443Z,21.13
2023-04-30T01:51:42.149Z,19.07
2023-04-30T01:54:20.682Z,18.10
2023-04-30T01:56:53.800Z,20.50
2023-04-30T01:59:20.713Z,20.17
2023-04-30T02:01:47.473Z,18.43
2023-04-30T02:04:14.158Z,19.93
2023-04-30T02:06:41.514Z,20.40
2023-04-30T02:09:10.584Z,19.97
2023-04-30T02:11:37.182Z,21.13
2023-04-30T02:14:03.726Z,21.30
2023-04-30T02:16:30.412Z,22.40
2023-04-30T02:18:57.093Z,22.33
2023-04-30T02:21:23.733Z,21.23
2023-04-30T02:23:50.337Z,22.80
2023-04-30T02:26:17.067Z,21.73
2023-04-30T02:28:44.027Z,21.70
2023-04-30T02:31:11.740Z,21.50
2023-04-30T02:33:38.331Z,23.70
2023-04-30T02:36:05.108Z,22.67
2023-04-30T02:38:32.044Z,23.83
2023-04-30T02:40:58.634Z,26.37
2023-04-30T02:43:25.214Z,24.47
2023-04-30T02:45:51.882Z,25.73
2023-04-30T02:48:18.500Z,24.10
2023-04-30T02:50:45.449Z,26.97
2023-04-30T02:53:12.140Z,25.97
2023-04-30T02:55:38.693Z,29.40
2023-04-30T02:58:05.331Z,30.03
2023-04-30T03:00:31.941Z,28.37
2023-04-30T03:02:58.669Z,31.17
2023-04-30T03:05:25.465Z,31.37
2023-04-30T03:07:52.106Z,29.13
2023-04-30T03:10:19.927Z,27.83
2023-04-30T03:12:46.557Z,28.20
2023-04-30T03:15:13.352Z,28.97
2023-04-30T03:17:40.011Z,30.60
2023-04-30T03:20:07.278Z,32.37
2023-04-30T03:22:33.924Z,35.03
2023-04-30T03:25:00.635Z,34.20
2023-04-30T03:27:27.320Z,34.07
2023-04-30T03:29:54.113Z,33.27
2023-04-30T03:32:20.848Z,31.23
2023-04-30T03:34:47.476Z,33.30
2023-04-30T03:37:14.093Z,36.93
2023-04-30T03:39:40.697Z,35.37
2023-04-30T03:42:07.293Z,37.23
2023-04-30T03:44:33.883Z,32.50
2023-04-30T03:47:00.521Z,33.87
2023-04-30T03:49:27.122Z,36.00
2023-04-30T03:51:54.163Z,36.83
2023-04-30T03:54:21.327Z,37.43
2023-04-30T03:56:48.012Z,39.80
2023-04-30T03:59:14.622Z,38.10
2023-04-30T04:01:42.056Z,39.90
2023-04-30T04:04:09.111Z,39.33
2023-04-30T04:06:36.432Z,39.27
2023-04-30T04:09:04.413Z,38.70
2023-04-30T04:11:31.025Z,39.83
2023-04-30T04:13:57.761Z,41.60
2023-04-30T04:16:24.601Z,38.70
2023-04-30T04:18:51.280Z,40.37
2023-04-30T04:21:18.403Z,39.10
2023-04-30T04:23:45.827Z,36.97
2023-04-30T04:26:12.682Z,38.63
2023-04-30T04:28:39.399Z,38.77
2023-04-30T04:31:06.366Z,37.67
2023-04-30T04:33:33.087Z,36.53
2023-04-30T04:35:59.741Z,36.20
2023-04-30T04:38:26.873Z,39.93
2023-04-30T04:40:54.211Z,38.60
2023-04-30T04:43:21.742Z,36.83
2023-04-30T04:45:48.474Z,36.57
2023-04-30T04:48:15.396Z,38.63
2023-04-30T04:50:42.077Z,34.90
2023-04-30T04:53:08.718Z,40.40
2023-04-30T04:55:35.868Z,33.30
2023-04-30T04:58:02.584Z,32.60
2023-04-30T05:00:29.879Z,32.13
2023-04-30T05:02:56.963Z,33.90
2023-04-30T05:05:23.631Z,37.03
2023-04-30T05:07:52.475Z,37.23
2023-04-30T05:10:19.289Z,36.33
2023-04-30T05:12:46.147Z,37.03
2023-04-30T05:15:12.735Z,38.60
2023-04-30T05:17:39.388Z,38.90
2023-04-30T05:20:07.484Z,38.33
2023-04-30T05:22:34.683Z,41.30
2023-04-30T05:25:01.379Z,39.90
2023-04-30T05:27:28.007Z,43.10
2023-04-30T05:29:54.791Z,39.53
2023-04-30T05:32:22.909Z,39.17
2023-04-30T05:34:49.954Z,40.50
2023-04-30T05:37:17.704Z,38.30
2023-04-30T05:39:44.269Z,37.10
2023-04-30T05:42:10.816Z,36.20
2023-04-30T05:44:37.470Z,33.10
2023-04-30T05:47:04.089Z,32.57
2023-04-30T05:49:30.692Z,30.97
2023-04-30T05:51:57.762Z,26.83
2023-04-30T05:54:24.330Z,21.93
2023-04-30T05:56:50.892Z,20.67
2023-04-30T05:59:17.491Z,17.97
2023-04-30T06:01:44.381Z,17.23
2023-04-30T06:04:11.752Z,16.90
2023-04-30T06:06:38.421Z,17.87
2023-04-30T06:09:05.119Z,16.60
2023-04-30T06:11:31.704Z,16.80
2023-04-30T06:13:58.617Z,15.17
2023-04-30T06:16:25.204Z,16.27
2023-04-30T06:18:53.646Z,15.13
2023-04-30T06:21:20.785Z,15.67
2023-04-30T06:23:47.403Z,14.10
2023-04-30T06:26:15.321Z,14.60
2023-04-30T06:28:42.028Z,14.83
2023-04-30T06:31:08.706Z,14.80
2023-04-30T06:33:35.354Z,14.40
2023-04-30T06:36:02.010Z,14.70
2023-04-30T06:38:28.936Z,15.73
2023-04-30T06:40:55.551Z,17.07
2023-04-30T06:43:22.100Z,14.80
2023-04-30T06:45:48.735Z,14.50
2023-04-30T06:48:15.538Z,14.17
2023-04-30T06:50:45.269Z,16.33
2023-04-30T06:53:12.933Z,14.63
2023-04-30T06:55:39.771Z,15.73
2023-04-30T06:58:06.722Z,15.27
2023-04-30T07:00:33.488Z,17.60
2023-04-30T07:03:02.789Z,15.40
2023-04-30T07:05:30.060Z,14.40
2023-04-30T07:07:57.161Z,17.10
2023-04-30T07:10:23.806Z,15.50
2023-04-30T07:12:50.511Z,15.50
2023-04-30T07:15:17.314Z,15.57
2023-04-30T07:17:44.121Z,15.53
2023-04-30T07:20:11.267Z,16.10
2023-04-30T07:22:37.946Z,15.87
2023-04-30T07:25:05.721Z,17.40
2023-04-30T07:27:32.215Z,17.47
2023-04-30T07:29:58.951Z,16.17
2023-04-30T07:32:27.207Z,15.63
2023-04-30T07:34:53.844Z,17.10
2023-04-30T07:37:20.598Z,18.80
2023-04-30T07:39:47.332Z,16.60
2023-04-30T07:42:13.979Z,17.87
2023-04-30T07:44:41.676Z,18.87
2023-04-30T07:47:09.972Z,20.70
2023-04-30T07:49:36.789Z,19.10
2023-04-30T07:52:03.669Z,17.13
2023-04-30T07:54:30.275Z,17.77
2023-04-30T07:56:57.070Z,17.27
2023-04-30T07:59:24.488Z,18.93
2023-04-30T08:01:51.663Z,20.57
2023-04-30T08:04:18.429Z,17.90
2023-04-30T08:06:45.303Z,19.87
2023-04-30T08:09:11.994Z,20.77
2023-04-30T08:11:38.567Z,18.63
2023-04-30T08:14:06.966Z,19.07
2023-04-30T08:16:33.596Z,17.07
2023-04-30T08:19:00.520Z,18.03
2023-04-30T08:21:28.207Z,16.83
2023-04-30T08:23:55.005Z,15.20
2023-04-30T08:26:21.849Z,15.50
2023-04-30T08:28:48.597Z,15.30
2023-04-30T08:31:15.326Z,14.27
2023-04-30T08:33:41.917Z,15.27
2023-04-30T08:36:08.531Z,14.20
2023-04-30T08:38:35.409Z,17.83
2023-04-30T08:41:05.622Z,18.63
2023-04-30T08:43:35.412Z,16.17
2023-04-30T08:46:03.033Z,14.97
2023-04-30T08:48:30.406Z,18.67
2023-04-30T08:50:59.510Z,13.90
2023-04-30T08:53:26.240Z,16.60
2023-04-30T08:55:52.808Z,17.10
2023-04-30T08:58:19.670Z,16.00
2023-04-30T09:00:47.425Z,16.17
2023-04-30T09:03:14.249Z,16.93
2023-04-30T09:05:41.721Z,16.47
2023-04-30T09:08:08.989Z,15.93
2023-04-30T09:10:35.993Z,16.60
2023-04-30T09:13:07.062Z,13.33
2023-04-30T09:15:34.745Z,16.27
2023-04-30T09:18:07.867Z,13.47
2023-04-30T09:20:34.886Z,15.10
2023-04-30T09:23:08.633Z,14.17
2023-04-30T09:25:40.304Z,13.90
2023-04-30T09:28:13.780Z,13.63
2023-04-30T09:30:41.225Z,16.10
2023-04-30T09:33:11.398Z,10.20
2023-04-30T09:35:39.934Z,11.80
2023-04-30T09:38:06.825Z,14.10
2023-04-30T09:40:40.828Z,10.57
2023-04-30T09:43:07.708Z,11.23
2023-04-30T09:45:41.404Z,10.67
2023-04-30T09:48:17.281Z,12.67
2023-04-30T09:50:47.565Z,12.00
2023-04-30T09:53:14.489Z,10.90
2023-04-30T09:55:45.298Z,9.17
2023-04-30T09:58:12.277Z,10.57
2023-04-30T10:00:39.681Z,11.47
2023-04-30T10:03:08.520Z,8.10
2023-04-30T10:05:43.516Z,10.43
2023-04-30T10:08:12.501Z,9.90
2023-04-30T10:10:40.886Z,5.03
2023-04-30T10:13:09.657Z,5.93
2023-04-30T10:15:39.877Z,7.63
2023-04-30T10:18:09.084Z,6.57
2023-04-30T10:20:39.262Z,8.03
2023-04-30T10:23:07.231Z,7.83
2023-04-30T10:25:33.983Z,7.50
2023-04-30T10:28:02.592Z,6.53
2023-04-30T10:30:32.782Z,7.30
2023-04-30T10:33:07.098Z,7.30
2023-04-30T10:35:40.311Z,7.90
2023-04-30T10:38:16.911Z,10.10
2023-04-30T10:40:45.979Z,10.10
2023-04-30T10:43:13.401Z,8.80
2023-04-30T10:45:43.803Z,6.93
2023-04-30T10:48:10.648Z,8.23
2023-04-30T10:50:44.965Z,6.97
2023-04-30T10:53:13.404Z,5.80
2023-04-30T10:55:58.683Z,7.67
2023-04-30T10:58:26.302Z,5.83
2023-04-30T11:01:05.088Z,4.47
2023-04-30T11:03:32.830Z,4.63
2023-04-30T11:06:04.021Z,4.70
2023-04-30T11:08:34.739Z,5.00
2023-04-30T11:11:05.329Z,5.33
2023-04-30T11:13:45.691Z,5.93
2023-04-30T11:16:12.942Z,5.67
2023-04-30T11:18:46.068Z,5.20
2023-04-30T11:21:13.540Z,5.57
2023-04-30T11:23:42.370Z,6.03
2023-04-30T11:26:09.509Z,5.43
2023-04-30T11:28:36.699Z,5.27
2023-04-30T11:31:04.156Z,6.70
2023-04-30T11:33:32.049Z,5.90
2023-04-30T11:36:02.743Z,6.00
2023-04-30T11:38:38.879Z,6.00
2023-04-30T11:41:27.604Z,6.60
2023-04-30T11:43:54.583Z,5.97
2023-04-30T11:46:21.808Z,5.30
2023-04-30T11:48:49.518Z,5.47
2023-04-30T11:51:18.782Z,3.93
2023-04-30T11:53:55.239Z,4.17
2023-04-30T11:56:25.799Z,6.00
2023-04-30T11:58:54.036Z,6.40
2023-04-30T12:01:21.387Z,5.53
2023-04-30T12:03:49.402Z,5.37
2023-04-30T12:06:24.074Z,5.30
2023-04-30T12:08:55.240Z,5.83
2023-04-30T12:11:25.910Z,6.50
2023-04-30T12:13:54.169Z,5.67
2023-04-30T12:16:21.138Z,5.07
2023-04-30T12:18:47.939Z,4.80
2023-04-30T12:21:14.894Z,4.93
2023-04-30T12:23:41.902Z,5.70
2023-04-30T12:26:08.630Z,3.60
2023-04-30T12:28:35.450Z,4.40
2023-04-30T12:31:03.985Z,4.07
2023-04-30T12:33:33.737Z,4.53
2023-04-30T12:36:00.683Z,3.40
2023-04-30T12:38:27.626Z,4.70
2023-04-30T12:40:54.341Z,4.10
2023-04-30T12:43:21.185Z,4.80
2023-04-30T12:45:48.228Z,4.30
2023-04-30T12:48:15.900Z,4.30
2023-04-30T12:50:43.357Z,4.67
2023-04-30T12:53:15.525Z,4.30
2023-04-30T12:55:42.396Z,3.67
2023-04-30T12:58:10.191Z,3.27
2023-04-30T13:00:44.073Z,3.80
2023-04-30T13:03:11.366Z,3.43
2023-04-30T13:05:38.360Z,3.37
2023-04-30T13:08:08.038Z,5.53
2023-04-30T13:10:35.108Z,5.00
2023-04-30T13:13:01.962Z,4.27
2023-04-30T13:15:28.871Z,5.87
2023-04-30T13:17:56.355Z,4.87
2023-04-30T13:20:24.891Z,4.47
2023-04-30T13:22:52.094Z,4.00
2023-04-30T13:25:18.866Z,4.23
2023-04-30T13:27:45.694Z,3.80
2023-04-30T13:30:12.547Z,3.93
2023-04-30T13:32:39.310Z,3.77
2023-04-30T13:35:08.849Z,3.30
2023-04-30T13:37:36.126Z,3.80
2023-04-30T13:40:03.952Z,3.60
2023-04-30T13:42:30.802Z,3.67
2023-04-30T13:45:01.717Z,3.20
2023-04-30T13:47:28.668Z,2.90
2023-04-30T13:49:55.599Z,3.23
2023-04-30T13:52:22.509Z,2.73
2023-04-30T13:54:49.527Z,3.27
2023-04-30T13:57:16.251Z,2.50
2023-04-30T13:59:43.016Z,2.77
2023-04-30T14:02:09.868Z,2.67
2023-04-30T14:04:38.157Z,2.20
2023-04-30T14:07:04.840Z,2.73
2023-04-30T14:09:31.480Z,2.53
2023-04-30T14:11:59.061Z,2.97
2023-04-30T14:14:26.916Z,2.70
2023-04-30T14:16:54.133Z,2.40
2023-04-30T14:19:22.677Z,2.67
2023-04-30T14:21:49.447Z,2.20
2023-04-30T14:24:17.983Z,2.07
2023-04-30T14:26:45.773Z,1.80
2023-04-30T14:29:12.481Z,2.17
2023-04-30T14:31:39.218Z,2.57
2023-04-30T14:34:05.875Z,2.87
2023-04-30T14:36:32.789Z,1.87
2023-04-30T14:38:59.508Z,2.40
2023-04-30T14:41:26.289Z,1.97
2023-04-30T14:43:52.963Z,2.17
2023-04-30T14:46:19.824Z,3.03
2023-04-30T14:48:46.554Z,3.30
2023-04-30T14:51:13.347Z,3.10
2023-04-30T14:53:40.040Z,2.90
2023-04-30T14:56:07.274Z,3.00
2023-04-30T14:58:34.016Z,2.33
2023-04-30T15:01:00.920Z,2.60
2023-04-30T15:03:27.710Z,2.13
2023-04-30T15:05:54.570Z,2.53
2023-04-30T15:08:21.288Z,1.87
2023-04-30T15:10:49.091Z,1.83
2023-04-30T15:13:15.850Z,2.77
2023-04-30T15:15:43.144Z,2.50
2023-04-30T15:18:10.683Z,2.10
2023-04-30T15:20:37.366Z,2.40
2023-04-30T15:23:04.013Z,2.40
2023-04-30T15:25:31.266Z,1.80
2023-04-30T15:27:58.519Z,2.10
2023-04-30T15:30:25.337Z,1.50
2023-04-30T15:32:52.145Z,1.77
2023-04-30T15:35:18.686Z,1.60
2023-04-30T15:37:45.510Z,1.33
2023-04-30T15:40:15.234Z,1.90
2023-04-30T15:42:43.596Z,1.47
2023-04-30T15:45:10.586Z,2.23
2023-04-30T15:47:41.389Z,2.30
2023-04-30T15:50:08.406Z,2.07
2023-04-30T15:52:35.808Z,2.83
2023-04-30T15:55:03.856Z,1.27
2023-04-30T15:57:30.788Z,1.50
2023-04-30T15:59:57.685Z,2.00
2023-04-30T16:02:24.638Z,1.80
2023-04-30T16:04:51.306Z,1.60
2023-04-30T16:07:18.280Z,1.70
2023-04-30T16:09:46.237Z,1.73
2023-04-30T16:12:12.965Z,1.40
2023-04-30T16:14:40.144Z,1.40
2023-04-30T16:17:07.037Z,1.97
2023-04-30T16:19:33.728Z,1.67
2023-04-30T16:22:01.050Z,1.30
2023-04-30T16:24:27.842Z,1.30
2023-04-30T16:26:54.588Z,1.83
2023-04-30T16:29:21.216Z,1.30
2023-04-30T16:31:47.975Z,1.43
2023-04-30T16:34:14.611Z,1.40
2023-04-30T16:36:41.761Z,1.87
2023-04-30T16:39:08.342Z,1.50
2023-04-30T16:41:35.275Z,1.57
2023-04-30T16:44:02.586Z,2.50
2023-04-30T16:46:29.746Z,1.77
2023-04-30T16:48:56.531Z,1.40
2023-04-30T16:51:23.248Z,1.63
2023-04-30T16:53:49.879Z,2.30
2023-04-30T16:56:16.519Z,1.57
2023-04-30T16:58:43.342Z,1.70
2023-04-30T17:01:10.000Z,1.70
2023-04-30T17:03:36.918Z,1.50
2023-04-30T17:06:05.236Z,1.40
2023-04-30T17:08:31.965Z,2.03
2023-04-30T17:10:58.605Z,2.00
2023-04-30T17:13:25.367Z,2.17
2023-04-30T17:15:52.075Z,1.90
2023-04-30T17:18:18.887Z,2.23
2023-04-30T17:20:46.562Z,1.80
2023-04-30T17:23:13.272Z,1.13
2023-04-30T17:25:40.304Z,1.50
2023-04-30T17:28:08.409Z,1.80
2023-04-30T17:30:36.323Z,2.00
2023-04-30T17:33:04.557Z,1.50
2023-04-30T17:35:31.287Z,1.53
2023-04-30T17:37:58.103Z,1.53
2023-04-30T17:40:25.094Z,1.53
2023-04-30T17:42:52.202Z,1.73
2023-04-30T17:45:19.572Z,1.53
2023-04-30T17:47:46.324Z,1.43
2023-04-30T17:50:13.054Z,1.60
2023-04-30T17:52:39.933Z,0.90
2023-04-30T17:55:10.013Z,1.47
2023-04-30T17:57:36.758Z,1.20
2023-04-30T18:00:04.947Z,1.40
2023-04-30T18:02:39.957Z,1.20
2023-04-30T18:05:06.865Z,1.20
2023-04-30T18:07:33.539Z,1.30
2023-04-30T18:10:00.622Z,1.10
2023-04-30T18:12:27.342Z,1.17
2023-04-30T18:14:54.005Z,1.70
2023-04-30T18:17:20.791Z,1.37
2023-04-30T18:19:48.709Z,1.60
2023-04-30T18:22:15.697Z,1.67
2023-04-30T18:24:42.467Z,1.30
2023-04-30T18:27:10.197Z,1.70
2023-04-30T18:29:37.097Z,1.70
2023-04-30T18:32:04.027Z,1.67
2023-04-30T18:34:31.074Z,1.77
2023-04-30T18:36:57.866Z,1.63
2023-04-30T18:39:24.624Z,1.30
2023-04-30T18:41:51.497Z,1.40
2023-04-30T18:44:19.278Z,1.60
2023-04-30T18:46:45.887Z,1.90
2023-04-30T18:49:13.643Z,1.43
2023-04-30T18:51:40.331Z,2.37
2023-04-30T18:54:06.991Z,1.83
2023-04-30T18:56:33.675Z,1.70
2023-04-30T18:59:00.380Z,1.93
2023-04-30T19:01:27.491Z,1.93
2023-04-30T19:03:54.244Z,1.83
2023-04-30T19:06:21.051Z,1.60
2023-04-30T19:08:48.100Z,2.17
2023-04-30T19:11:15.027Z,1.93
2023-04-30T19:13:41.864Z,1.67
2023-04-30T19:16:08.680Z,1.50
2023-04-30T19:18:36.393Z,1.70
2023-04-30T19:21:04.641Z,2.30
2023-04-30T19:23:32.453Z,2.30
2023-04-30T19:25:59.584Z,1.67
2023-04-30T19:28:26.201Z,2.40
2023-04-30T19:30:55.738Z,1.67
2023-04-30T19:33:22.859Z,2.00
2023-04-30T19:35:51.072Z,2.30
2023-04-30T19:38:17.881Z,1.73
2023-04-30T19:40:48.580Z,2.00
2023-04-30T19:43:15.461Z,2.83
2023-04-30T19:45:52.909Z,1.70
2023-04-30T19:48:20.071Z,1.80
2023-04-30T19:50:47.753Z,2.07
2023-04-30T19:53:15.450Z,1.77
2023-04-30T19:55:42.343Z,2.33
2023-04-30T19:58:09.092Z,2.03
2023-04-30T20:00:36.426Z,2.77
2023-04-30T20:03:05.199Z,2.30
2023-04-30T20:05:32.773Z,2.60
2023-04-30T20:07:59.890Z,2.53
2023-04-30T20:10:29.803Z,2.60
2023-04-30T20:12:56.638Z,2.60
2023-04-30T20:15:23.389Z,2.63
2023-04-30T20:17:50.559Z,2.20
2023-04-30T20:20:17.761Z,2.60
2023-04-30T20:22:44.367Z,2.83
2023-04-30T20:25:11.102Z,2.90
2023-04-30T20:27:37.805Z,2.30
2023-04-30T20:30:05.310Z,1.90
2023-04-30T20:32:32.322Z,2.53
2023-04-30T20:34:59.149Z,2.67
2023-04-30T20:37:25.903Z,1.87
2023-04-30T20:39:52.502Z,2.70
2023-04-30T20:42:19.815Z,2.57
2023-04-30T20:44:47.531Z,2.40
2023-04-30T20:47:17.112Z,2.50
2023-04-30T20:49:43.923Z,2.57
2023-04-30T20:52:12.193Z,2.10
2023-04-30T20:54:39.273Z,2.57
2023-04-30T20:57:06.588Z,1.83
2023-04-30T20:59:34.310Z,1.70
2023-04-30T21:02:01.253Z,2.80
2023-04-30T21:04:28.617Z,2.50
2023-04-30T21:06:55.371Z,2.60
2023-04-30T21:09:23.004Z,2.77
2023-04-30T21:11:49.751Z,3.90
2023-04-30T21:14:16.420Z,3.20
2023-04-30T21:16:43.648Z,2.50
2023-04-30T21:19:11.300Z,2.60
2023-04-30T21:21:38.055Z,2.90
2023-04-30T21:24:05.260Z,2.83
2023-04-30T21:26:32.143Z,2.00
2023-04-30T21:28:58.904Z,2.87
2023-04-30T21:31:25.876Z,2.00
2023-04-30T21:33:52.628Z,3.00
2023-04-30T21:36:20.329Z,3.30
2023-04-30T21:38:47.082Z,2.60
2023-04-30T21:41:14.430Z,2.60
2023-04-30T21:43:43.989Z,2.50
2023-04-30T21:46:11.147Z,2.27
2023-04-30T21:48:38.395Z,3.10
2023-04-30T21:51:12.526Z,2.73
2023-04-30T21:53:39.297Z,2.37
2023-04-30T21:56:07.496Z,3.07
2023-04-30T21:58:34.572Z,2.70
2023-04-30T22:01:01.931Z,2.77
2023-04-30T22:03:28.722Z,3.10
2023-04-30T22:05:55.678Z,2.27
2023-04-30T22:08:22.517Z,2.80
2023-04-30T22:10:49.692Z,3.10
2023-04-30T22:13:16.450Z,2.90
2023-04-30T22:15:48.168Z,2.80
2023-04-30T22:18:15.417Z,3.80
2023-04-30T22:20:42.402Z,3.37
2023-04-30T22:23:09.148Z,3.83
2023-04-30T22:25:35.974Z,3.40
2023-04-30T22:28:03.141Z,3.40
2023-04-30T22:30:29.734Z,3.40
2023-04-30T22:32:56.777Z,3.80
2023-04-30T22:35:23.534Z,3.73
2023-04-30T22:37:50.049Z,3.30
2023-04-30T22:40:18.169Z,3.70
2023-04-30T22:42:45.445Z,3.03
2023-04-30T22:45:12.702Z,3.40
2023-04-30T22:47:39.744Z,3.30
2023-04-30T22:50:07.964Z,3.50
2023-04-30T22:52:35.034Z,3.33
2023-04-30T22:55:01.928Z,2.83
2023-04-30T22:57:28.544Z,3.23
2023-04-30T22:59:55.402Z,3.77
2023-04-30T23:02:22.176Z,3.57
2023-04-30T23:04:49.545Z,4.03
2023-04-30T23:07:16.316Z,4.33
2023-04-30T23:09:43.474Z,4.73
2023-04-30T23:12:10.141Z,4.00
2023-04-30T23:14:37.124Z,4.10
2023-04-30T23:17:03.795Z,3.80
2023-04-30T23:19:30.608Z,3.50
2023-04-30T23:21:57.528Z,3.90
2023-04-30T23:24:24.165Z,4.93
2023-04-30T23:26:50.814Z,4.23
2023-04-30T23:29:17.420Z,4.73
2023-04-30T23:31:44.075Z,4.47
2023-04-30T23:34:10.878Z,3.80
2023-04-30T23:36:37.397Z,4.83
2023-04-30T23:39:04.780Z,3.90
2023-04-30T23:41:31.496Z,4.07
2023-04-30T23:43:58.116Z,4.30
2023-04-30T23:46:25.010Z,3.50
2023-04-30T23:48:51.920Z,4.70
2023-04-30T23:51:19.036Z,3.93
2023-04-30T23:53:45.897Z,3.80
2023-04-30T23:56:12.481Z,4.17
2023-04-30T23:58:38.964Z,3.23
